createdAt,value
2022-12-05T00:02:03.891Z,70.45
2022-12-05T00:04:31.907Z,70.56
2022-12-05T00:06:59.847Z,70.80
2022-12-05T00:09:27.863Z,70.90
2022-12-05T00:11:57.644Z,70.55
2022-12-05T00:14:25.838Z,70.65
2022-12-05T00:16:55.203Z,70.63
2022-12-05T00:19:23.738Z,70.81
2022-12-05T00:21:51.672Z,71.02
2022-12-05T00:24:19.934Z,70.81
2022-12-05T00:26:48.564Z,70.81
2022-12-05T00:29:16.563Z,71.02
2022-12-05T00:31:44.510Z,70.71
2022-12-05T00:34:14.197Z,70.74
2022-12-05T00:36:42.360Z,70.53
2022-12-05T00:39:12.669Z,70.36
2022-12-05T00:41:40.999Z,70.69
2022-12-05T00:44:09.342Z,71.09
2022-12-05T00:46:37.865Z,70.92
2022-12-05T00:49:07.714Z,71.02
2022-12-05T00:51:39.761Z,71.10
2022-12-05T00:54:09.937Z,71.43
2022-12-05T00:56:38.533Z,71.10
2022-12-05T00:59:07.829Z,70.93
2022-12-05T01:01:38.225Z,70.94
2022-12-05T01:04:08.008Z,71.32
2022-12-05T01:06:37.818Z,71.43
2022-12-05T01:09:07.858Z,71.50
2022-12-05T01:11:40.913Z,71.47
2022-12-05T01:14:10.022Z,71.45
2022-12-05T01:16:40.099Z,71.43
2022-12-05T01:19:11.811Z,71.13
2022-12-05T01:21:41.610Z,71.45
2022-12-05T01:24:10.379Z,71.17
2022-12-05T01:26:38.660Z,71.30
2022-12-05T01:29:06.647Z,71.49
2022-12-05T01:31:36.867Z,71.08
2022-12-05T01:34:07.444Z,70.89
2022-12-05T01:36:35.766Z,71.21
2022-12-05T01:39:05.231Z,70.76
2022-12-05T01:41:36.382Z,71.22
2022-12-05T01:44:06.877Z,71.26
2022-12-05T01:46:36.918Z,70.88
2022-12-05T01:49:09.120Z,70.98
2022-12-05T01:51:39.752Z,70.97
2022-12-05T01:54:11.502Z,70.98
2022-12-05T01:56:43.467Z,71.14
2022-12-05T01:59:12.670Z,70.78
2022-12-05T02:01:41.871Z,70.88
2022-12-05T02:04:10.959Z,70.60
2022-12-05T02:06:39.972Z,70.87
2022-12-05T02:09:09.843Z,70.75
2022-12-05T02:11:47.323Z,70.51
2022-12-05T02:14:26.793Z,70.38
2022-12-05T02:17:12.794Z,70.30
2022-12-05T02:20:19.788Z,69.97
2022-12-05T02:23:21.189Z,70.32
2022-12-05T02:26:14.363Z,70.40
2022-12-05T02:29:09.866Z,70.48
2022-12-05T02:31:47.644Z,70.56
2022-12-05T02:34:22.444Z,70.70
2022-12-05T02:36:58.723Z,70.21
2022-12-05T02:39:36.882Z,70.58
2022-12-05T02:42:11.841Z,71.04
2022-12-05T02:44:46.744Z,70.39
2022-12-05T02:47:21.046Z,70.64
2022-12-05T02:49:51.126Z,70.66
2022-12-05T02:52:19.988Z,70.55
2022-12-05T02:54:50.501Z,71.04
2022-12-05T02:57:20.115Z,70.90
2022-12-05T02:59:48.214Z,71.18
2022-12-05T03:02:27.017Z,70.83
2022-12-05T03:04:59.669Z,71.20
2022-12-05T03:07:30.649Z,70.74
2022-12-05T03:10:03.835Z,70.99
2022-12-05T03:12:38.617Z,70.74
2022-12-05T03:15:11.831Z,70.93
2022-12-05T03:17:45.628Z,71.63
2022-12-05T03:20:19.178Z,71.12
2022-12-05T03:22:53.352Z,71.74
2022-12-05T03:25:24.547Z,71.62
2022-12-05T03:27:58.633Z,71.06
2022-12-05T03:30:26.806Z,71.61
2022-12-05T03:33:04.131Z,72.35
2022-12-05T03:35:38.427Z,72.04
2022-12-05T03:38:12.201Z,72.12
2022-12-05T03:40:45.217Z,72.50
2022-12-05T03:43:20.160Z,72.49
2022-12-05T03:45:54.206Z,73.89
2022-12-05T03:48:31.484Z,74.21
2022-12-05T03:51:01.459Z,74.13
2022-12-05T03:53:33.219Z,73.44
2022-12-05T03:56:06.434Z,74.14
2022-12-05T03:58:41.944Z,74.20
2022-12-05T04:01:12.334Z,74.14
2022-12-05T04:03:45.391Z,74.68
2022-12-05T04:06:23.678Z,74.75
2022-12-05T04:08:55.960Z,74.82
2022-12-05T04:11:28.679Z,74.34
2022-12-05T04:14:02.146Z,74.21
2022-12-05T04:16:52.408Z,73.83
2022-12-05T04:19:49.959Z,74.07
2022-12-05T04:22:18.005Z,75.35
2022-12-05T04:25:03.860Z,75.11
2022-12-05T04:27:39.847Z,76.13
2022-12-05T04:30:10.689Z,75.31
2022-12-05T04:32:45.914Z,76.15
2022-12-05T04:35:20.545Z,76.61
2022-12-05T04:37:52.687Z,75.62
2022-12-05T04:40:24.190Z,75.38
2022-12-05T04:42:54.650Z,75.28
2022-12-05T04:45:25.581Z,75.88
2022-12-05T04:47:57.836Z,75.94
2022-12-05T04:50:30.126Z,75.54
2022-12-05T04:53:00.513Z,74.97
2022-12-05T04:55:29.880Z,74.48
2022-12-05T04:58:06.564Z,74.79
2022-12-05T05:00:40.803Z,74.16
2022-12-05T05:03:15.530Z,74.41
2022-12-05T05:05:47.561Z,74.39
2022-12-05T05:08:20.059Z,73.62
2022-12-05T05:10:55.680Z,73.44
2022-12-05T05:13:23.706Z,72.94
2022-12-05T05:15:51.687Z,73.24
2022-12-05T05:18:19.660Z,72.95
2022-12-05T05:20:48.895Z,72.97
2022-12-05T05:23:16.858Z,72.79
2022-12-05T05:25:44.799Z,72.39
2022-12-05T05:28:12.724Z,73.67
2022-12-05T05:30:40.674Z,73.55
2022-12-05T05:33:08.608Z,73.98
2022-12-05T05:35:37.745Z,74.12
2022-12-05T05:38:07.075Z,74.34
2022-12-05T05:40:36.726Z,74.20
2022-12-05T05:43:05.171Z,74.45
2022-12-05T05:45:33.129Z,74.08
2022-12-05T05:48:01.043Z,74.48
2022-12-05T05:50:29.114Z,74.55
2022-12-05T05:52:57.285Z,75.04
2022-12-05T05:55:26.628Z,74.33
2022-12-05T05:57:54.528Z,74.50
2022-12-05T06:00:22.889Z,74.01
2022-12-05T06:02:50.867Z,73.93
2022-12-05T06:05:18.942Z,73.46
2022-12-05T06:07:46.893Z,72.88
2022-12-05T06:10:15.007Z,73.34
2022-12-05T06:12:44.347Z,73.13
2022-12-05T06:15:12.977Z,72.94
2022-12-05T06:17:41.034Z,72.79
2022-12-05T06:20:09.930Z,73.22
2022-12-05T06:22:37.993Z,72.56
2022-12-05T06:25:07.121Z,73.18
2022-12-05T06:27:35.242Z,72.80
2022-12-05T06:30:05.692Z,72.56
2022-12-05T06:32:33.699Z,72.98
2022-12-05T06:35:07.874Z,72.69
2022-12-05T06:37:37.702Z,72.72
2022-12-05T06:40:07.090Z,72.21
2022-12-05T06:42:35.089Z,72.65
2022-12-05T06:45:04.502Z,72.61
2022-12-05T06:47:32.679Z,72.34
2022-12-05T06:50:00.738Z,72.42
2022-12-05T06:52:28.792Z,72.34
2022-12-05T06:54:56.732Z,71.75
2022-12-05T06:57:24.656Z,71.68
2022-12-05T07:00:12.636Z,71.92
2022-12-05T07:02:41.997Z,71.74
2022-12-05T07:05:10.667Z,71.86
2022-12-05T07:07:38.957Z,71.35
2022-12-05T07:10:08.454Z,71.61
2022-12-05T07:12:36.424Z,71.23
2022-12-05T07:15:04.843Z,71.47
2022-12-05T07:17:37.241Z,71.86
2022-12-05T07:20:09.907Z,71.49
2022-12-05T07:22:38.374Z,71.67
2022-12-05T07:25:07.455Z,71.50
2022-12-05T07:27:35.455Z,71.46
2022-12-05T07:30:03.490Z,71.95
2022-12-05T07:32:33.308Z,71.62
2022-12-05T07:35:01.264Z,71.53
2022-12-05T07:37:30.935Z,72.04
2022-12-05T07:39:59.150Z,72.31
2022-12-05T07:42:27.352Z,72.09
2022-12-05T07:44:55.311Z,71.98
2022-12-05T07:47:23.289Z,71.91
2022-12-05T07:49:51.261Z,71.46
2022-12-05T07:52:19.184Z,71.91
2022-12-05T07:54:48.563Z,71.35
2022-12-05T07:57:16.515Z,72.04
2022-12-05T07:59:44.496Z,71.76
2022-12-05T08:02:12.581Z,72.02
2022-12-05T08:04:40.563Z,71.67
2022-12-05T08:07:11.256Z,72.08
2022-12-05T08:09:39.198Z,71.85
2022-12-05T08:12:09.026Z,71.55
2022-12-05T08:14:37.090Z,71.18
2022-12-05T08:17:05.790Z,71.17
2022-12-05T08:19:33.750Z,71.19
2022-12-05T08:22:01.790Z,71.13
2022-12-05T08:24:29.756Z,71.05
2022-12-05T08:26:57.655Z,71.07
2022-12-05T08:29:27.133Z,70.47
2022-12-05T08:31:55.062Z,70.22
2022-12-05T08:34:23.024Z,70.80
2022-12-05T08:36:51.471Z,70.04
2022-12-05T08:39:20.870Z,69.95
2022-12-05T08:41:49.693Z,69.91
2022-12-05T08:44:18.556Z,70.34
2022-12-05T08:46:50.071Z,70.12
2022-12-05T08:49:18.663Z,69.93
2022-12-05T08:51:46.755Z,69.99
2022-12-05T08:54:15.033Z,70.15
2022-12-05T08:56:42.955Z,70.11
2022-12-05T08:59:10.898Z,69.56
2022-12-05T09:01:39.762Z,69.86
2022-12-05T09:04:09.666Z,69.54
2022-12-05T09:06:39.383Z,69.70
2022-12-05T09:09:11.666Z,69.63
2022-12-05T09:11:46.220Z,69.46
2022-12-05T09:14:14.717Z,69.42
2022-12-05T09:16:45.776Z,69.95
2022-12-05T09:19:16.854Z,69.67
2022-12-05T09:21:45.589Z,70.04
2022-12-05T09:24:14.522Z,70.25
2022-12-05T09:26:43.037Z,70.52
2022-12-05T09:29:16.655Z,70.03
2022-12-05T09:31:46.527Z,70.20
2022-12-05T09:34:17.923Z,69.84
2022-12-05T09:36:49.782Z,70.31
2022-12-05T09:39:17.931Z,70.14
2022-12-05T09:42:09.818Z,69.99
2022-12-05T09:44:45.392Z,69.94
2022-12-05T09:47:23.219Z,70.18
2022-12-05T09:49:57.027Z,69.96
2022-12-05T09:52:28.537Z,69.56
2022-12-05T09:54:58.467Z,69.85
2022-12-05T09:57:34.848Z,69.75
2022-12-05T10:00:07.603Z,70.17
2022-12-05T10:02:47.079Z,69.92
2022-12-05T10:05:22.231Z,69.84
2022-12-05T10:08:02.940Z,69.88
2022-12-05T10:10:45.251Z,69.69
2022-12-05T10:13:24.212Z,69.57
2022-12-05T10:15:57.629Z,69.57
2022-12-05T10:18:33.420Z,69.84
2022-12-05T10:21:06.428Z,69.64
2022-12-05T10:23:59.902Z,69.78
2022-12-05T10:26:31.741Z,69.45
2022-12-05T10:29:07.604Z,69.61
2022-12-05T10:31:38.646Z,69.08
2022-12-05T10:34:16.173Z,69.53
2022-12-05T10:36:55.818Z,69.45
2022-12-05T10:39:23.823Z,69.32
2022-12-05T10:41:51.811Z,69.76
2022-12-05T10:44:19.835Z,69.48
2022-12-05T10:46:47.778Z,68.93
2022-12-05T10:49:15.674Z,68.76
2022-12-05T10:51:43.687Z,68.66
2022-12-05T10:54:19.328Z,68.76
2022-12-05T10:56:48.495Z,69.10
2022-12-05T10:59:18.340Z,69.20
2022-12-05T11:01:50.026Z,69.28
2022-12-05T11:04:24.970Z,69.39
2022-12-05T11:06:56.872Z,69.47
2022-12-05T11:09:28.246Z,69.67
2022-12-05T11:12:06.386Z,69.43
2022-12-05T11:14:36.269Z,69.64
2022-12-05T11:17:06.196Z,69.34
2022-12-05T11:19:35.905Z,69.52
2022-12-05T11:22:05.402Z,69.16
2022-12-05T11:24:36.822Z,69.65
2022-12-05T11:27:26.870Z,69.40
2022-12-05T11:29:58.405Z,70.04
2022-12-05T11:32:29.025Z,69.92
2022-12-05T11:35:05.725Z,70.13
2022-12-05T11:37:39.402Z,70.13
2022-12-05T11:40:17.123Z,69.94
2022-12-05T11:43:03.039Z,70.28
2022-12-05T11:45:52.286Z,70.62
2022-12-05T11:48:32.830Z,70.08
2022-12-05T11:51:16.464Z,70.12
2022-12-05T11:54:13.828Z,70.21
2022-12-05T11:56:49.388Z,70.61
2022-12-05T11:59:35.164Z,70.26
2022-12-05T12:02:17.304Z,70.41
2022-12-05T12:04:55.980Z,70.16
2022-12-05T12:07:45.146Z,70.58
2022-12-05T12:10:24.689Z,69.93
2022-12-05T12:13:06.901Z,70.02
2022-12-05T12:15:49.697Z,70.71
2022-12-05T12:18:33.278Z,70.38
2022-12-05T12:21:17.385Z,70.30
2022-12-05T12:23:57.154Z,70.02
2022-12-05T12:26:38.001Z,70.66
2022-12-05T12:29:17.193Z,70.40
2022-12-05T12:32:00.453Z,70.06
2022-12-05T12:34:52.686Z,70.77
2022-12-05T12:37:31.508Z,70.60
2022-12-05T12:40:08.078Z,70.05
2022-12-05T12:42:41.351Z,70.73
2022-12-05T12:45:32.672Z,70.64
2022-12-05T12:48:14.008Z,70.73
2022-12-05T12:50:44.818Z,70.59
2022-12-05T12:53:32.435Z,70.52
2022-12-05T12:56:08.488Z,70.39
2022-12-05T12:58:48.175Z,70.91
2022-12-05T13:01:26.917Z,71.24
2022-12-05T13:04:02.887Z,70.82
2022-12-05T13:06:35.925Z,71.20
2022-12-05T13:09:07.020Z,70.79
2022-12-05T13:11:38.900Z,71.32
2022-12-05T13:14:13.134Z,71.29
2022-12-05T13:16:46.382Z,71.10
2022-12-05T13:19:27.103Z,71.69
2022-12-05T13:21:58.138Z,71.63
2022-12-05T13:24:28.336Z,70.95
2022-12-05T13:27:01.330Z,71.12
2022-12-05T13:29:33.739Z,71.48
2022-12-05T13:32:05.224Z,71.21
2022-12-05T13:34:46.382Z,71.27
2022-12-05T13:37:39.395Z,71.29
2022-12-05T13:40:37.550Z,71.91
2022-12-05T13:43:06.389Z,72.12
2022-12-05T13:45:35.546Z,72.32
2022-12-05T13:48:15.206Z,72.79
2022-12-05T13:50:49.378Z,73.07
2022-12-05T13:53:28.425Z,73.27
2022-12-05T13:55:58.960Z,73.64
2022-12-05T13:58:45.297Z,73.99
2022-12-05T14:01:53.794Z,73.82
2022-12-05T14:04:45.709Z,73.77
2022-12-05T14:07:13.668Z,73.88
2022-12-05T14:09:53.717Z,73.84
2022-12-05T14:12:45.249Z,73.74
2022-12-05T14:15:29.390Z,74.30
2022-12-05T14:18:01.434Z,73.88
2022-12-05T14:20:45.720Z,74.60
2022-12-05T14:23:29.631Z,74.49
2022-12-05T14:26:13.219Z,74.89
2022-12-05T14:28:58.116Z,75.46
2022-12-05T14:31:43.832Z,75.17
2022-12-05T14:34:20.744Z,75.82
2022-12-05T14:36:57.803Z,76.72
2022-12-05T14:39:34.301Z,76.53
2022-12-05T14:42:09.504Z,76.81
2022-12-05T14:44:37.820Z,77.17
2022-12-05T14:47:07.975Z,77.28
2022-12-05T14:49:54.688Z,77.10
2022-12-05T14:52:26.206Z,77.35
2022-12-05T14:54:59.234Z,76.87
2022-12-05T14:57:27.751Z,76.76
2022-12-05T14:59:58.608Z,76.64
2022-12-05T15:02:31.152Z,76.91
2022-12-05T15:05:04.914Z,76.88
2022-12-05T15:07:37.625Z,76.93
2022-12-05T15:10:09.184Z,76.89
2022-12-05T15:12:43.547Z,77.58
2022-12-05T15:15:19.876Z,77.38
2022-12-05T15:17:52.500Z,77.83
2022-12-05T15:20:34.374Z,77.97
2022-12-05T15:23:40.531Z,78.11
2022-12-05T15:26:45.606Z,77.67
2022-12-05T15:29:09.287Z,78.03
2022-12-05T15:31:40.932Z,78.59
2022-12-05T15:34:15.793Z,78.08
2022-12-05T15:36:49.353Z,78.60
2022-12-05T15:39:23.910Z,77.93
2022-12-05T15:41:52.725Z,78.86
2022-12-05T15:44:26.854Z,78.32
2022-12-05T15:46:57.347Z,79.03
2022-12-05T15:49:26.932Z,79.03
2022-12-05T15:51:58.397Z,77.53
2022-12-05T15:54:33.007Z,77.33
2022-12-05T15:57:07.284Z,77.58
2022-12-05T15:59:39.699Z,76.88
2022-12-05T16:02:16.938Z,77.38
2022-12-05T16:04:50.388Z,77.45
2022-12-05T16:07:18.933Z,77.21
2022-12-05T16:09:48.711Z,76.92
2022-12-05T16:12:25.000Z,76.87
2022-12-05T16:15:01.017Z,76.94
2022-12-05T16:17:37.775Z,76.99
2022-12-05T16:20:24.608Z,76.90
2022-12-05T16:22:54.816Z,77.18
2022-12-05T16:25:27.626Z,77.41
2022-12-05T16:28:00.533Z,77.36
2022-12-05T16:30:31.429Z,77.27
2022-12-05T16:33:02.761Z,76.74
2022-12-05T16:35:33.963Z,77.03
2022-12-05T16:38:18.334Z,76.71
2022-12-05T16:40:57.131Z,76.49
2022-12-05T16:43:42.063Z,76.12
2022-12-05T16:46:41.857Z,76.06
2022-12-05T16:49:23.625Z,76.53
2022-12-05T16:51:57.201Z,77.29
2022-12-05T16:54:25.086Z,77.45
2022-12-05T16:56:54.823Z,77.83
2022-12-05T16:59:25.393Z,77.31
2022-12-05T17:01:53.425Z,77.44
2022-12-05T17:04:21.344Z,77.73
2022-12-05T17:06:49.149Z,77.92
2022-12-05T17:09:16.995Z,77.04
2022-12-05T17:11:47.010Z,76.96
2022-12-05T17:14:18.487Z,77.55
2022-12-05T17:16:47.078Z,77.26
2022-12-05T17:19:15.224Z,77.91
2022-12-05T17:21:43.975Z,77.62
2022-12-05T17:24:17.211Z,78.04
2022-12-05T17:26:46.179Z,77.42
2022-12-05T17:29:14.347Z,77.20
2022-12-05T17:31:43.505Z,77.68
2022-12-05T17:34:16.691Z,77.53
2022-12-05T17:36:45.369Z,77.35
2022-12-05T17:39:13.391Z,77.44
2022-12-05T17:41:41.403Z,77.52
2022-12-05T17:44:13.970Z,77.19
2022-12-05T17:46:44.571Z,77.25
2022-12-05T17:49:14.735Z,77.56
2022-12-05T17:51:58.845Z,77.71
2022-12-05T17:54:32.199Z,77.45
2022-12-05T17:57:01.355Z,77.32
2022-12-05T17:59:29.182Z,76.98
2022-12-05T18:01:58.567Z,77.39
2022-12-05T18:04:26.387Z,76.95
2022-12-05T18:06:56.076Z,77.42
2022-12-05T18:09:23.950Z,77.36
2022-12-05T18:11:51.742Z,77.53
2022-12-05T18:14:19.576Z,77.90
2022-12-05T18:16:47.714Z,77.73
2022-12-05T18:19:16.956Z,78.52
2022-12-05T18:24:17.560Z,78.36
2022-12-05T18:26:45.712Z,78.52
2022-12-05T18:29:13.647Z,78.53
2022-12-05T18:31:42.936Z,78.54
2022-12-05T18:34:10.778Z,78.69
2022-12-05T18:36:40.034Z,78.21
2022-12-05T18:39:07.863Z,78.56
2022-12-05T18:41:35.819Z,78.49
2022-12-05T18:44:03.743Z,78.55
2022-12-05T18:46:31.697Z,78.57
2022-12-05T18:49:03.329Z,78.11
2022-12-05T18:51:31.845Z,78.48
2022-12-05T18:54:01.307Z,78.49
2022-12-05T18:56:31.167Z,78.22
2022-12-05T18:59:01.860Z,78.70
2022-12-05T19:01:32.320Z,78.22
2022-12-05T19:04:02.315Z,78.21
2022-12-05T19:06:32.809Z,78.21
2022-12-05T19:09:04.704Z,78.53
2022-12-05T19:11:33.234Z,78.44
2022-12-05T19:14:02.964Z,78.84
2022-12-05T19:16:32.995Z,79.46
2022-12-05T19:19:02.348Z,79.48
2022-12-05T19:21:32.206Z,79.58
2022-12-05T19:24:00.444Z,80.03
2022-12-05T19:26:29.879Z,79.54
2022-12-05T19:28:58.344Z,79.49
2022-12-05T19:31:27.606Z,80.27
2022-12-05T19:34:01.196Z,80.31
2022-12-05T19:36:33.204Z,80.76
2022-12-05T19:39:01.082Z,81.12
2022-12-05T19:41:31.222Z,80.94
2022-12-05T19:44:00.780Z,81.10
2022-12-05T19:46:30.422Z,80.69
2022-12-05T19:49:04.976Z,80.86
2022-12-05T19:51:34.152Z,80.79
2022-12-05T19:54:04.481Z,81.02
2022-12-05T19:56:35.112Z,82.31
2022-12-05T19:59:03.736Z,82.47
2022-12-05T20:01:32.938Z,83.05
2022-12-05T20:04:02.603Z,83.33
2022-12-05T20:06:33.421Z,83.41
2022-12-05T20:09:01.564Z,83.69
2022-12-05T20:11:31.205Z,83.68
2022-12-05T20:14:02.653Z,84.31
2022-12-05T20:16:31.375Z,83.88
2022-12-05T20:18:59.986Z,83.63
2022-12-05T20:21:30.167Z,84.60
2022-12-05T20:23:59.332Z,84.49
2022-12-05T20:26:29.559Z,84.73
2022-12-05T20:28:58.810Z,84.00
2022-12-05T20:31:30.075Z,84.21
2022-12-05T20:33:58.183Z,84.32
2022-12-05T20:36:29.294Z,84.08
2022-12-05T20:38:58.219Z,84.36
2022-12-05T20:41:26.624Z,83.61
2022-12-05T20:43:56.425Z,84.17
2022-12-05T20:46:24.884Z,83.69
2022-12-05T20:48:54.497Z,84.31
2022-12-05T20:51:24.443Z,83.85
2022-12-05T20:53:52.800Z,84.35
2022-12-05T20:56:22.905Z,84.75
2022-12-05T20:58:52.713Z,84.27
2022-12-05T21:01:22.286Z,84.68
2022-12-05T21:03:51.380Z,84.29
2022-12-05T21:06:24.051Z,84.81
2022-12-05T21:08:52.503Z,84.07
2022-12-05T21:11:21.310Z,84.01
2022-12-05T21:13:49.476Z,82.99
2022-12-05T21:16:19.336Z,83.06
2022-12-05T21:18:47.891Z,82.93
2022-12-05T21:21:18.261Z,83.21
2022-12-05T21:23:49.428Z,83.48
2022-12-05T21:26:18.968Z,83.29
2022-12-05T21:28:47.746Z,83.66
2022-12-05T21:31:18.731Z,84.28
2022-12-05T21:33:48.627Z,84.13
2022-12-05T21:36:16.856Z,83.96
2022-12-05T21:38:44.786Z,84.39
2022-12-05T21:41:14.031Z,84.49
2022-12-05T21:43:41.858Z,84.61
2022-12-05T21:46:09.775Z,85.26
2022-12-05T21:48:38.128Z,85.01
2022-12-05T21:51:07.656Z,85.86
2022-12-05T21:53:38.280Z,86.24
2022-12-05T21:56:08.520Z,86.04
2022-12-05T21:58:42.158Z,85.93
2022-12-05T22:01:13.198Z,85.95
2022-12-05T22:03:41.255Z,86.93
2022-12-05T22:06:11.117Z,86.42
2022-12-05T22:08:40.130Z,86.55
2022-12-05T22:11:09.517Z,86.04
2022-12-05T22:13:39.298Z,86.45
2022-12-05T22:16:08.006Z,86.60
2022-12-05T22:18:36.776Z,87.59
2022-12-05T22:21:10.804Z,87.42
2022-12-05T22:23:38.656Z,87.53
2022-12-05T22:26:09.462Z,87.53
2022-12-05T22:28:39.812Z,87.43
2022-12-05T22:31:09.767Z,86.77
2022-12-05T22:33:38.311Z,86.43
2022-12-05T22:36:08.473Z,86.65
2022-12-05T22:38:38.161Z,86.55
2022-12-05T22:41:07.881Z,87.19
2022-12-05T22:43:38.823Z,87.71
2022-12-05T22:46:08.587Z,86.85
2022-12-05T22:48:36.695Z,86.39
2022-12-05T22:51:07.326Z,86.47
2022-12-05T22:53:35.843Z,85.96
2022-12-05T22:56:05.871Z,86.27
2022-12-05T22:58:33.897Z,85.82
2022-12-05T23:01:12.628Z,84.91
2022-12-05T23:03:40.603Z,84.85
2022-12-05T23:06:12.009Z,84.69
2022-12-05T23:08:40.875Z,84.54
2022-12-05T23:11:10.187Z,83.80
2022-12-05T23:13:39.399Z,83.84
2022-12-05T23:16:11.161Z,83.09
2022-12-05T23:18:47.542Z,83.27
2022-12-05T23:21:20.729Z,82.84
2022-12-05T23:23:49.682Z,82.37
2022-12-05T23:26:19.163Z,82.68
2022-12-05T23:28:47.134Z,81.92
2022-12-05T23:31:17.092Z,82.05
2022-12-05T23:33:45.023Z,81.73
2022-12-05T23:36:14.025Z,81.33
2022-12-05T23:38:43.364Z,81.25
2022-12-05T23:41:14.486Z,81.06
2022-12-05T23:43:43.289Z,80.61
2022-12-05T23:46:13.233Z,80.24
2022-12-05T23:48:42.848Z,80.65
2022-12-05T23:51:13.364Z,80.34
2022-12-05T23:53:43.828Z,81.06
2022-12-05T23:56:13.174Z,80.42
2022-12-05T23:58:41.517Z,80.45
